sensor_id;sensor_type;location;lat;lon;timestamp;P1;durP1;ratioP1;P2;durP2;ratioP2
59788;SDS011;47353;51.614;5.530;2023-04-24T00:01:14;12.05;;;8.48;;
59788;SDS011;47353;51.614;5.530;2023-04-24T00:03:40;12.32;;;9.02;;
59788;SDS011;47353;51.614;5.530;2023-04-24T00:06:06;10.32;;;8.88;;
59788;SDS011;47353;51.614;5.530;2023-04-24T00:08:33;12.40;;;9.65;;
59788;SDS011;47353;51.614;5.530;2023-04-24T00:10:59;11.25;;;9.32;;
59788;SDS011;47353;51.614;5.530;2023-04-24T00:13:24;13.50;;;9.88;;
59788;SDS011;47353;51.614;5.530;2023-04-24T00:15:50;14.35;;;10.63;;
59788;SDS011;47353;51.614;5.530;2023-04-24T00:18:16;15.82;;;10.20;;
59788;SDS011;47353;51.614;5.530;2023-04-24T00:20:41;12.20;;;10.05;;
59788;SDS011;47353;51.614;5.530;2023-04-24T00:23:08;16.40;;;11.63;;
59788;SDS011;47353;51.614;5.530;2023-04-24T00:25:34;19.60;;;13.23;;
59788;SDS011;47353;51.614;5.530;2023-04-24T00:27:59;16.83;;;12.43;;
59788;SDS011;47353;51.614;5.530;2023-04-24T00:30:25;17.58;;;12.77;;
59788;SDS011;47353;51.614;5.530;2023-04-24T00:32:50;18.90;;;14.32;;
59788;SDS011;47353;51.614;5.530;2023-04-24T00:35:17;18.55;;;14.52;;
59788;SDS011;47353;51.614;5.530;2023-04-24T00:37:44;22.20;;;14.32;;
59788;SDS011;47353;51.614;5.530;2023-04-24T00:40:10;21.55;;;14.88;;
59788;SDS011;47353;51.614;5.530;2023-04-24T00:42:36;21.33;;;15.65;;
59788;SDS011;47353;51.614;5.530;2023-04-24T00:45:01;24.90;;;16.20;;
59788;SDS011;47353;51.614;5.530;2023-04-24T00:47:28;24.65;;;15.18;;
59788;SDS011;47353;51.614;5.530;2023-04-24T00:49:54;20.38;;;15.20;;
59788;SDS011;47353;51.614;5.530;2023-04-24T00:52:20;20.38;;;13.82;;
59788;SDS011;47353;51.614;5.530;2023-04-24T00:54:45;22.70;;;16.58;;
59788;SDS011;47353;51.614;5.530;2023-04-24T00:57:11;18.65;;;12.30;;
59788;SDS011;47353;51.614;5.530;2023-04-24T00:59:38;26.35;;;17.65;;
59788;SDS011;47353;51.614;5.530;2023-04-24T01:02:06;22.02;;;15.68;;
59788;SDS011;47353;51.614;5.530;2023-04-24T01:04:32;29.85;;;17.60;;
59788;SDS011;47353;51.614;5.530;2023-04-24T01:06:58;29.65;;;18.70;;
59788;SDS011;47353;51.614;5.530;2023-04-24T01:09:23;26.63;;;16.98;;
59788;SDS011;47353;51.614;5.530;2023-04-24T01:11:50;30.10;;;18.52;;
59788;SDS011;47353;51.614;5.530;2023-04-24T01:14:15;31.13;;;19.48;;
59788;SDS011;47353;51.614;5.530;2023-04-24T01:16:41;32.42;;;20.35;;
59788;SDS011;47353;51.614;5.530;2023-04-24T01:19:07;28.90;;;18.90;;
59788;SDS011;47353;51.614;5.530;2023-04-24T01:21:36;31.48;;;19.88;;
59788;SDS011;47353;51.614;5.530;2023-04-24T01:24:02;32.53;;;20.35;;
59788;SDS011;47353;51.614;5.530;2023-04-24T01:26:31;33.90;;;21.58;;
59788;SDS011;47353;51.614;5.530;2023-04-24T01:28:57;33.42;;;20.65;;
59788;SDS011;47353;51.614;5.530;2023-04-24T01:31:22;30.80;;;19.48;;
59788;SDS011;47353;51.614;5.530;2023-04-24T01:33:49;31.05;;;19.15;;
59788;SDS011;47353;51.614;5.530;2023-04-24T01:36:15;31.83;;;21.15;;
59788;SDS011;47353;51.614;5.530;2023-04-24T01:38:41;31.17;;;19.52;;
59788;SDS011;47353;51.614;5.530;2023-04-24T01:41:06;32.40;;;19.73;;
59788;SDS011;47353;51.614;5.530;2023-04-24T01:43:32;30.73;;;20.02;;
59788;SDS011;47353;51.614;5.530;2023-04-24T01:45:57;37.83;;;21.63;;
59788;SDS011;47353;51.614;5.530;2023-04-24T01:48:23;35.47;;;21.48;;
59788;SDS011;47353;51.614;5.530;2023-04-24T01:50:48;32.97;;;20.55;;
59788;SDS011;47353;51.614;5.530;2023-04-24T01:53:14;36.03;;;22.13;;
59788;SDS011;47353;51.614;5.530;2023-04-24T01:55:40;34.25;;;20.10;;
59788;SDS011;47353;51.614;5.530;2023-04-24T01:58:06;37.90;;;23.55;;
59788;SDS011;47353;51.614;5.530;2023-04-24T02:00:32;40.25;;;24.77;;
59788;SDS011;47353;51.614;5.530;2023-04-24T02:02:57;45.72;;;26.75;;
59788;SDS011;47353;51.614;5.530;2023-04-24T02:05:23;42.92;;;26.63;;
59788;SDS011;47353;51.614;5.530;2023-04-24T02:07:48;46.40;;;26.60;;
59788;SDS011;47353;51.614;5.530;2023-04-24T02:10:14;41.30;;;24.08;;
59788;SDS011;47353;51.614;5.530;2023-04-24T02:12:39;45.50;;;28.00;;
59788;SDS011;47353;51.614;5.530;2023-04-24T02:15:05;49.80;;;27.50;;
59788;SDS011;47353;51.614;5.530;2023-04-24T02:17:31;53.33;;;30.20;;
59788;SDS011;47353;51.614;5.530;2023-04-24T02:19:56;46.65;;;28.98;;
59788;SDS011;47353;51.614;5.530;2023-04-24T02:22:22;47.90;;;26.92;;
59788;SDS011;47353;51.614;5.530;2023-04-24T02:24:47;53.65;;;30.33;;
59788;SDS011;47353;51.614;5.530;2023-04-24T02:27:13;50.25;;;28.30;;
59788;SDS011;47353;51.614;5.530;2023-04-24T02:29:38;46.70;;;30.23;;
59788;SDS011;47353;51.614;5.530;2023-04-24T02:32:03;47.03;;;27.88;;
59788;SDS011;47353;51.614;5.530;2023-04-24T02:34:29;43.08;;;25.95;;
59788;SDS011;47353;51.614;5.530;2023-04-24T02:36:55;45.55;;;28.73;;
59788;SDS011;47353;51.614;5.530;2023-04-24T02:39:20;46.20;;;27.45;;
59788;SDS011;47353;51.614;5.530;2023-04-24T02:41:46;49.83;;;27.45;;
59788;SDS011;47353;51.614;5.530;2023-04-24T02:44:11;42.13;;;27.42;;
59788;SDS011;47353;51.614;5.530;2023-04-24T02:46:36;39.72;;;25.58;;
59788;SDS011;47353;51.614;5.530;2023-04-24T02:49:02;41.85;;;25.17;;
59788;SDS011;47353;51.614;5.530;2023-04-24T02:51:27;37.63;;;23.58;;
59788;SDS011;47353;51.614;5.530;2023-04-24T02:53:53;38.78;;;25.10;;
59788;SDS011;47353;51.614;5.530;2023-04-24T02:56:18;40.35;;;24.13;;
59788;SDS011;47353;51.614;5.530;2023-04-24T02:58:44;34.55;;;22.23;;
59788;SDS011;47353;51.614;5.530;2023-04-24T03:01:10;39.22;;;23.65;;
59788;SDS011;47353;51.614;5.530;2023-04-24T03:03:36;44.42;;;25.08;;
59788;SDS011;47353;51.614;5.530;2023-04-24T03:06:02;41.08;;;23.75;;
59788;SDS011;47353;51.614;5.530;2023-04-24T03:08:28;42.83;;;25.90;;
59788;SDS011;47353;51.614;5.530;2023-04-24T03:10:53;42.40;;;26.00;;
59788;SDS011;47353;51.614;5.530;2023-04-24T03:13:18;47.13;;;27.13;;
59788;SDS011;47353;51.614;5.530;2023-04-24T03:15:44;42.85;;;25.10;;
59788;SDS011;47353;51.614;5.530;2023-04-24T03:18:11;41.08;;;26.25;;
59788;SDS011;47353;51.614;5.530;2023-04-24T03:20:36;37.53;;;22.77;;
59788;SDS011;47353;51.614;5.530;2023-04-24T03:23:02;37.10;;;23.38;;
59788;SDS011;47353;51.614;5.530;2023-04-24T03:25:28;38.85;;;24.95;;
59788;SDS011;47353;51.614;5.530;2023-04-24T03:27:53;37.45;;;23.75;;
59788;SDS011;47353;51.614;5.530;2023-04-24T03:30:19;41.33;;;24.05;;
59788;SDS011;47353;51.614;5.530;2023-04-24T03:32:45;40.20;;;26.13;;
59788;SDS011;47353;51.614;5.530;2023-04-24T03:35:10;36.00;;;23.65;;
59788;SDS011;47353;51.614;5.530;2023-04-24T03:37:36;39.42;;;24.02;;
59788;SDS011;47353;51.614;5.530;2023-04-24T03:40:01;37.13;;;24.13;;
59788;SDS011;47353;51.614;5.530;2023-04-24T03:42:27;36.40;;;23.05;;
59788;SDS011;47353;51.614;5.530;2023-04-24T03:44:52;35.75;;;22.73;;
59788;SDS011;47353;51.614;5.530;2023-04-24T03:47:18;33.95;;;24.27;;
59788;SDS011;47353;51.614;5.530;2023-04-24T03:49:43;33.20;;;22.52;;
59788;SDS011;47353;51.614;5.530;2023-04-24T03:52:09;34.38;;;22.08;;
59788;SDS011;47353;51.614;5.530;2023-04-24T03:54:34;34.95;;;21.48;;
59788;SDS011;47353;51.614;5.530;2023-04-24T03:57:00;33.83;;;21.02;;
59788;SDS011;47353;51.614;5.530;2023-04-24T03:59:26;29.63;;;19.15;;
59788;SDS011;47353;51.614;5.530;2023-04-24T04:01:51;30.13;;;19.63;;
59788;SDS011;47353;51.614;5.530;2023-04-24T04:04:17;30.48;;;20.75;;
59788;SDS011;47353;51.614;5.530;2023-04-24T04:06:42;31.83;;;21.65;;
59788;SDS011;47353;51.614;5.530;2023-04-24T04:09:09;31.35;;;20.52;;
59788;SDS011;47353;51.614;5.530;2023-04-24T04:11:35;30.08;;;19.95;;
59788;SDS011;47353;51.614;5.530;2023-04-24T04:14:00;30.25;;;20.27;;
59788;SDS011;47353;51.614;5.530;2023-04-24T04:16:25;29.08;;;19.98;;
59788;SDS011;47353;51.614;5.530;2023-04-24T04:18:51;28.40;;;17.67;;
59788;SDS011;47353;51.614;5.530;2023-04-24T04:21:16;27.17;;;19.52;;
59788;SDS011;47353;51.614;5.530;2023-04-24T04:23:42;26.88;;;18.88;;
59788;SDS011;47353;51.614;5.530;2023-04-24T04:26:07;26.70;;;19.60;;
59788;SDS011;47353;51.614;5.530;2023-04-24T04:28:33;29.08;;;19.42;;
59788;SDS011;47353;51.614;5.530;2023-04-24T04:30:58;33.25;;;19.27;;
59788;SDS011;47353;51.614;5.530;2023-04-24T04:33:24;30.40;;;19.77;;
59788;SDS011;47353;51.614;5.530;2023-04-24T04:35:51;29.70;;;18.15;;
59788;SDS011;47353;51.614;5.530;2023-04-24T04:38:17;27.92;;;19.00;;
59788;SDS011;47353;51.614;5.530;2023-04-24T04:40:43;29.58;;;18.38;;
59788;SDS011;47353;51.614;5.530;2023-04-24T04:43:09;25.70;;;17.05;;
59788;SDS011;47353;51.614;5.530;2023-04-24T04:45:36;27.45;;;18.02;;
59788;SDS011;47353;51.614;5.530;2023-04-24T04:48:03;28.95;;;19.15;;
59788;SDS011;47353;51.614;5.530;2023-04-24T04:50:29;26.90;;;16.83;;
59788;SDS011;47353;51.614;5.530;2023-04-24T04:52:55;30.40;;;19.42;;
59788;SDS011;47353;51.614;5.530;2023-04-24T04:55:20;30.30;;;18.27;;
59788;SDS011;47353;51.614;5.530;2023-04-24T04:57:46;25.05;;;17.08;;
59788;SDS011;47353;51.614;5.530;2023-04-24T05:00:11;30.02;;;18.75;;
59788;SDS011;47353;51.614;5.530;2023-04-24T05:02:37;27.25;;;19.33;;
59788;SDS011;47353;51.614;5.530;2023-04-24T05:05:04;26.42;;;17.85;;
59788;SDS011;47353;51.614;5.530;2023-04-24T05:07:30;25.23;;;18.00;;
59788;SDS011;47353;51.614;5.530;2023-04-24T05:09:56;21.67;;;15.48;;
59788;SDS011;47353;51.614;5.530;2023-04-24T05:12:21;21.80;;;14.80;;
59788;SDS011;47353;51.614;5.530;2023-04-24T05:14:47;19.02;;;13.20;;
59788;SDS011;47353;51.614;5.530;2023-04-24T05:17:12;19.13;;;13.35;;
59788;SDS011;47353;51.614;5.530;2023-04-24T05:19:37;21.52;;;14.80;;
59788;SDS011;47353;51.614;5.530;2023-04-24T05:22:03;21.00;;;15.23;;
59788;SDS011;47353;51.614;5.530;2023-04-24T05:24:31;22.27;;;16.42;;
59788;SDS011;47353;51.614;5.530;2023-04-24T05:26:57;22.52;;;14.57;;
59788;SDS011;47353;51.614;5.530;2023-04-24T05:29:23;20.88;;;14.18;;
59788;SDS011;47353;51.614;5.530;2023-04-24T05:31:49;19.80;;;13.38;;
59788;SDS011;47353;51.614;5.530;2023-04-24T05:34:14;21.90;;;15.43;;
59788;SDS011;47353;51.614;5.530;2023-04-24T05:36:41;20.50;;;13.55;;
59788;SDS011;47353;51.614;5.530;2023-04-24T05:39:07;14.60;;;10.20;;
59788;SDS011;47353;51.614;5.530;2023-04-24T05:41:33;16.13;;;9.93;;
59788;SDS011;47353;51.614;5.530;2023-04-24T05:43:59;12.85;;;8.68;;
59788;SDS011;47353;51.614;5.530;2023-04-24T05:46:24;11.60;;;7.80;;
59788;SDS011;47353;51.614;5.530;2023-04-24T05:48:50;10.77;;;7.15;;
59788;SDS011;47353;51.614;5.530;2023-04-24T05:51:15;13.70;;;8.20;;
59788;SDS011;47353;51.614;5.530;2023-04-24T05:53:40;14.35;;;9.40;;
59788;SDS011;47353;51.614;5.530;2023-04-24T05:56:06;16.10;;;8.77;;
59788;SDS011;47353;51.614;5.530;2023-04-24T05:58:31;12.93;;;7.55;;
59788;SDS011;47353;51.614;5.530;2023-04-24T06:00:57;15.20;;;7.95;;
59788;SDS011;47353;51.614;5.530;2023-04-24T06:03:23;10.10;;;6.40;;
59788;SDS011;47353;51.614;5.530;2023-04-24T06:05:52;8.13;;;5.60;;
59788;SDS011;47353;51.614;5.530;2023-04-24T06:08:17;9.10;;;5.55;;
59788;SDS011;47353;51.614;5.530;2023-04-24T06:10:42;7.60;;;5.70;;
59788;SDS011;47353;51.614;5.530;2023-04-24T06:13:08;6.82;;;5.43;;
59788;SDS011;47353;51.614;5.530;2023-04-24T06:15:33;9.38;;;5.28;;
59788;SDS011;47353;51.614;5.530;2023-04-24T06:17:59;7.78;;;6.22;;
59788;SDS011;47353;51.614;5.530;2023-04-24T06:20:24;7.55;;;6.45;;
59788;SDS011;47353;51.614;5.530;2023-04-24T06:22:50;10.88;;;6.88;;
59788;SDS011;47353;51.614;5.530;2023-04-24T06:25:16;12.73;;;8.07;;
59788;SDS011;47353;51.614;5.530;2023-04-24T06:27:41;14.18;;;9.27;;
59788;SDS011;47353;51.614;5.530;2023-04-24T06:30:07;13.85;;;8.43;;
59788;SDS011;47353;51.614;5.530;2023-04-24T06:32:33;14.05;;;8.85;;
59788;SDS011;47353;51.614;5.530;2023-04-24T06:34:58;10.60;;;7.55;;
59788;SDS011;47353;51.614;5.530;2023-04-24T06:37:23;12.52;;;7.97;;
59788;SDS011;47353;51.614;5.530;2023-04-24T06:39:49;13.25;;;8.18;;
59788;SDS011;47353;51.614;5.530;2023-04-24T06:42:15;14.38;;;9.55;;
59788;SDS011;47353;51.614;5.530;2023-04-24T06:44:40;22.77;;;13.23;;
59788;SDS011;47353;51.614;5.530;2023-04-24T06:47:15;22.92;;;14.32;;
59788;SDS011;47353;51.614;5.530;2023-04-24T06:49:40;25.40;;;15.38;;
59788;SDS011;47353;51.614;5.530;2023-04-24T06:52:06;18.70;;;13.98;;
59788;SDS011;47353;51.614;5.530;2023-04-24T06:54:32;23.48;;;14.98;;
59788;SDS011;47353;51.614;5.530;2023-04-24T06:56:58;22.30;;;14.02;;
59788;SDS011;47353;51.614;5.530;2023-04-24T06:59:25;15.60;;;10.90;;
59788;SDS011;47353;51.614;5.530;2023-04-24T07:01:51;15.32;;;10.00;;
59788;SDS011;47353;51.614;5.530;2023-04-24T07:04:16;11.50;;;8.90;;
59788;SDS011;47353;51.614;5.530;2023-04-24T07:06:42;13.13;;;9.30;;
59788;SDS011;47353;51.614;5.530;2023-04-24T07:09:08;13.95;;;10.25;;
59788;SDS011;47353;51.614;5.530;2023-04-24T07:11:34;18.90;;;11.93;;
59788;SDS011;47353;51.614;5.530;2023-04-24T07:14:00;20.23;;;11.90;;
59788;SDS011;47353;51.614;5.530;2023-04-24T07:16:25;18.35;;;11.48;;
59788;SDS011;47353;51.614;5.530;2023-04-24T07:18:52;22.58;;;12.80;;
59788;SDS011;47353;51.614;5.530;2023-04-24T07:21:17;24.83;;;12.55;;
59788;SDS011;47353;51.614;5.530;2023-04-24T07:23:42;22.50;;;13.98;;
59788;SDS011;47353;51.614;5.530;2023-04-24T07:26:08;25.30;;;13.95;;
59788;SDS011;47353;51.614;5.530;2023-04-24T07:28:33;21.23;;;13.73;;
59788;SDS011;47353;51.614;5.530;2023-04-24T07:30:59;25.98;;;15.30;;
59788;SDS011;47353;51.614;5.530;2023-04-24T07:33:25;24.48;;;14.55;;
59788;SDS011;47353;51.614;5.530;2023-04-24T07:35:51;23.40;;;14.18;;
59788;SDS011;47353;51.614;5.530;2023-04-24T07:38:17;23.02;;;13.45;;
59788;SDS011;47353;51.614;5.530;2023-04-24T07:40:46;24.85;;;13.63;;
59788;SDS011;47353;51.614;5.530;2023-04-24T07:43:11;22.92;;;13.68;;
59788;SDS011;47353;51.614;5.530;2023-04-24T07:45:36;24.40;;;13.20;;
59788;SDS011;47353;51.614;5.530;2023-04-24T07:48:02;21.30;;;12.77;;
59788;SDS011;47353;51.614;5.530;2023-04-24T07:50:28;25.52;;;13.18;;
59788;SDS011;47353;51.614;5.530;2023-04-24T07:52:53;21.30;;;12.35;;
59788;SDS011;47353;51.614;5.530;2023-04-24T07:55:25;21.90;;;12.70;;
59788;SDS011;47353;51.614;5.530;2023-04-24T07:57:55;21.98;;;12.57;;
59788;SDS011;47353;51.614;5.530;2023-04-24T08:00:20;18.50;;;10.82;;
59788;SDS011;47353;51.614;5.530;2023-04-24T08:02:46;18.77;;;10.48;;
59788;SDS011;47353;51.614;5.530;2023-04-24T08:05:11;19.60;;;10.48;;
59788;SDS011;47353;51.614;5.530;2023-04-24T08:07:36;19.95;;;9.25;;
59788;SDS011;47353;51.614;5.530;2023-04-24T08:10:03;19.55;;;8.93;;
59788;SDS011;47353;51.614;5.530;2023-04-24T08:12:29;16.65;;;8.88;;
59788;SDS011;47353;51.614;5.530;2023-04-24T08:14:54;25.25;;;9.45;;
59788;SDS011;47353;51.614;5.530;2023-04-24T08:17:20;21.33;;;8.90;;
59788;SDS011;47353;51.614;5.530;2023-04-24T08:19:45;18.15;;;8.23;;
59788;SDS011;47353;51.614;5.530;2023-04-24T08:22:13;18.77;;;8.45;;
59788;SDS011;47353;51.614;5.530;2023-04-24T08:24:39;25.23;;;8.50;;
59788;SDS011;47353;51.614;5.530;2023-04-24T08:27:05;21.92;;;7.95;;
59788;SDS011;47353;51.614;5.530;2023-04-24T08:29:30;18.17;;;7.50;;
59788;SDS011;47353;51.614;5.530;2023-04-24T08:31:56;18.67;;;7.18;;
59788;SDS011;47353;51.614;5.530;2023-04-24T08:34:22;19.00;;;6.75;;
59788;SDS011;47353;51.614;5.530;2023-04-24T08:36:47;14.95;;;6.20;;
59788;SDS011;47353;51.614;5.530;2023-04-24T08:39:13;17.90;;;5.82;;
59788;SDS011;47353;51.614;5.530;2023-04-24T08:41:41;16.67;;;5.80;;
59788;SDS011;47353;51.614;5.530;2023-04-24T08:44:11;18.25;;;6.25;;
59788;SDS011;47353;51.614;5.530;2023-04-24T08:46:37;17.20;;;5.55;;
59788;SDS011;47353;51.614;5.530;2023-04-24T08:49:05;13.75;;;4.85;;
59788;SDS011;47353;51.614;5.530;2023-04-24T08:51:31;11.65;;;5.15;;
59788;SDS011;47353;51.614;5.530;2023-04-24T08:53:56;13.57;;;5.20;;
59788;SDS011;47353;51.614;5.530;2023-04-24T08:56:22;13.35;;;5.55;;
59788;SDS011;47353;51.614;5.530;2023-04-24T08:58:51;19.00;;;5.95;;
59788;SDS011;47353;51.614;5.530;2023-04-24T09:01:19;17.23;;;5.32;;
59788;SDS011;47353;51.614;5.530;2023-04-24T09:03:45;13.30;;;5.20;;
59788;SDS011;47353;51.614;5.530;2023-04-24T09:06:13;19.55;;;5.18;;
59788;SDS011;47353;51.614;5.530;2023-04-24T09:08:39;18.48;;;5.57;;
59788;SDS011;47353;51.614;5.530;2023-04-24T09:11:07;17.95;;;5.60;;
59788;SDS011;47353;51.614;5.530;2023-04-24T09:13:33;18.58;;;5.13;;
59788;SDS011;47353;51.614;5.530;2023-04-24T09:15:59;17.63;;;4.80;;
59788;SDS011;47353;51.614;5.530;2023-04-24T09:18:25;14.50;;;4.70;;
59788;SDS011;47353;51.614;5.530;2023-04-24T09:21:02;17.77;;;5.22;;
59788;SDS011;47353;51.614;5.530;2023-04-24T09:23:30;15.95;;;4.90;;
59788;SDS011;47353;51.614;5.530;2023-04-24T09:25:57;14.57;;;4.43;;
59788;SDS011;47353;51.614;5.530;2023-04-24T09:28:32;12.98;;;4.30;;
59788;SDS011;47353;51.614;5.530;2023-04-24T09:31:12;15.23;;;4.13;;
59788;SDS011;47353;51.614;5.530;2023-04-24T09:33:40;15.30;;;3.92;;
59788;SDS011;47353;51.614;5.530;2023-04-24T09:36:38;12.70;;;3.58;;
59788;SDS011;47353;51.614;5.530;2023-04-24T09:41:47;12.07;;;3.83;;
59788;SDS011;47353;51.614;5.530;2023-04-24T09:44:15;13.40;;;3.70;;
59788;SDS011;47353;51.614;5.530;2023-04-24T09:46:42;10.45;;;3.40;;
59788;SDS011;47353;51.614;5.530;2023-04-24T09:49:09;12.13;;;3.55;;
59788;SDS011;47353;51.614;5.530;2023-04-24T09:51:36;9.30;;;3.60;;
59788;SDS011;47353;51.614;5.530;2023-04-24T09:54:03;12.57;;;3.60;;
59788;SDS011;47353;51.614;5.530;2023-04-24T09:56:35;9.98;;;3.50;;
59788;SDS011;47353;51.614;5.530;2023-04-24T09:59:07;8.77;;;2.90;;
59788;SDS011;47353;51.614;5.530;2023-04-24T10:01:33;11.88;;;2.92;;
59788;SDS011;47353;51.614;5.530;2023-04-24T10:03:59;11.10;;;4.03;;
59788;SDS011;47353;51.614;5.530;2023-04-24T10:06:33;10.88;;;3.00;;
59788;SDS011;47353;51.614;5.530;2023-04-24T10:08:59;10.70;;;3.05;;
59788;SDS011;47353;51.614;5.530;2023-04-24T10:11:26;10.75;;;3.13;;
59788;SDS011;47353;51.614;5.530;2023-04-24T10:13:52;12.68;;;2.90;;
59788;SDS011;47353;51.614;5.530;2023-04-24T10:16:18;11.38;;;2.83;;
59788;SDS011;47353;51.614;5.530;2023-04-24T10:18:46;12.45;;;2.80;;
59788;SDS011;47353;51.614;5.530;2023-04-24T10:21:14;9.05;;;2.80;;
59788;SDS011;47353;51.614;5.530;2023-04-24T10:23:40;13.75;;;3.10;;
59788;SDS011;47353;51.614;5.530;2023-04-24T10:26:08;9.57;;;2.70;;
59788;SDS011;47353;51.614;5.530;2023-04-24T10:28:34;8.18;;;2.50;;
59788;SDS011;47353;51.614;5.530;2023-04-24T10:31:01;10.50;;;2.30;;
59788;SDS011;47353;51.614;5.530;2023-04-24T10:33:27;7.88;;;2.53;;
59788;SDS011;47353;51.614;5.530;2023-04-24T10:35:54;5.85;;;2.33;;
59788;SDS011;47353;51.614;5.530;2023-04-24T10:38:25;4.65;;;1.90;;
59788;SDS011;47353;51.614;5.530;2023-04-24T10:41:11;4.55;;;2.00;;
59788;SDS011;47353;51.614;5.530;2023-04-24T10:43:44;8.02;;;2.10;;
59788;SDS011;47353;51.614;5.530;2023-04-24T10:46:10;5.03;;;1.80;;
59788;SDS011;47353;51.614;5.530;2023-04-24T10:51:16;5.55;;;2.00;;
59788;SDS011;47353;51.614;5.530;2023-04-24T10:53:42;5.88;;;2.22;;
59788;SDS011;47353;51.614;5.530;2023-04-24T10:56:08;6.90;;;1.77;;
59788;SDS011;47353;51.614;5.530;2023-04-24T10:58:40;5.85;;;1.73;;
59788;SDS011;47353;51.614;5.530;2023-04-24T11:01:32;6.18;;;1.50;;
59788;SDS011;47353;51.614;5.530;2023-04-24T11:04:01;5.13;;;1.20;;
59788;SDS011;47353;51.614;5.530;2023-04-24T11:06:34;5.13;;;1.83;;
59788;SDS011;47353;51.614;5.530;2023-04-24T11:09:04;6.15;;;1.70;;
59788;SDS011;47353;51.614;5.530;2023-04-24T11:11:35;4.40;;;1.52;;
59788;SDS011;47353;51.614;5.530;2023-04-24T11:14:08;8.00;;;2.15;;
59788;SDS011;47353;51.614;5.530;2023-04-24T11:19:07;6.32;;;2.50;;
59788;SDS011;47353;51.614;5.530;2023-04-24T11:21:55;7.40;;;3.42;;
59788;SDS011;47353;51.614;5.530;2023-04-24T11:24:39;6.20;;;2.33;;
59788;SDS011;47353;51.614;5.530;2023-04-24T11:32:55;6.65;;;2.40;;
59788;SDS011;47353;51.614;5.530;2023-04-24T11:37:40;4.70;;;1.38;;
59788;SDS011;47353;51.614;5.530;2023-04-24T11:40:08;9.13;;;1.70;;
59788;SDS011;47353;51.614;5.530;2023-04-24T11:42:35;5.50;;;2.08;;
59788;SDS011;47353;51.614;5.530;2023-04-24T11:45:02;6.93;;;1.20;;
59788;SDS011;47353;51.614;5.530;2023-04-24T11:47:33;3.53;;;1.20;;
59788;SDS011;47353;51.614;5.530;2023-04-24T11:49:59;4.40;;;1.40;;
59788;SDS011;47353;51.614;5.530;2023-04-24T11:52:26;3.38;;;1.20;;
59788;SDS011;47353;51.614;5.530;2023-04-24T11:54:52;3.92;;;1.40;;
59788;SDS011;47353;51.614;5.530;2023-04-24T11:57:21;5.75;;;1.42;;
59788;SDS011;47353;51.614;5.530;2023-04-24T11:59:47;5.13;;;1.55;;
59788;SDS011;47353;51.614;5.530;2023-04-24T12:02:26;4.10;;;1.50;;
59788;SDS011;47353;51.614;5.530;2023-04-24T12:04:52;6.72;;;1.65;;
59788;SDS011;47353;51.614;5.530;2023-04-24T12:07:18;6.85;;;1.67;;
59788;SDS011;47353;51.614;5.530;2023-04-24T12:09:45;7.90;;;1.40;;
59788;SDS011;47353;51.614;5.530;2023-04-24T12:12:13;4.63;;;1.73;;
59788;SDS011;47353;51.614;5.530;2023-04-24T12:14:50;4.18;;;1.42;;
59788;SDS011;47353;51.614;5.530;2023-04-24T12:17:23;9.35;;;1.65;;
59788;SDS011;47353;51.614;5.530;2023-04-24T12:19:56;10.52;;;1.50;;
59788;SDS011;47353;51.614;5.530;2023-04-24T12:25:13;9.27;;;1.90;;
59788;SDS011;47353;51.614;5.530;2023-04-24T12:27:40;7.93;;;1.85;;
59788;SDS011;47353;51.614;5.530;2023-04-24T12:30:09;5.13;;;1.85;;
59788;SDS011;47353;51.614;5.530;2023-04-24T12:32:40;7.53;;;2.50;;
59788;SDS011;47353;51.614;5.530;2023-04-24T12:35:06;8.82;;;1.83;;
59788;SDS011;47353;51.614;5.530;2023-04-24T12:37:32;6.63;;;2.03;;
59788;SDS011;47353;51.614;5.530;2023-04-24T12:40:06;5.53;;;2.00;;
59788;SDS011;47353;51.614;5.530;2023-04-24T12:42:33;5.47;;;1.95;;
59788;SDS011;47353;51.614;5.530;2023-04-24T12:45:00;4.22;;;1.88;;
59788;SDS011;47353;51.614;5.530;2023-04-24T12:47:28;5.55;;;1.48;;
59788;SDS011;47353;51.614;5.530;2023-04-24T12:49:54;5.40;;;1.75;;
59788;SDS011;47353;51.614;5.530;2023-04-24T12:52:20;5.28;;;1.42;;
59788;SDS011;47353;51.614;5.530;2023-04-24T12:54:51;4.78;;;1.60;;
59788;SDS011;47353;51.614;5.530;2023-04-24T12:57:18;6.97;;;2.03;;
59788;SDS011;47353;51.614;5.530;2023-04-24T12:59:43;4.00;;;1.85;;
59788;SDS011;47353;51.614;5.530;2023-04-24T13:02:09;3.85;;;1.85;;
59788;SDS011;47353;51.614;5.530;2023-04-24T13:04:35;6.85;;;1.40;;
59788;SDS011;47353;51.614;5.530;2023-04-24T13:07:01;4.65;;;1.40;;
59788;SDS011;47353;51.614;5.530;2023-04-24T13:09:26;3.83;;;1.45;;
59788;SDS011;47353;51.614;5.530;2023-04-24T13:11:52;6.03;;;2.05;;
59788;SDS011;47353;51.614;5.530;2023-04-24T13:14:17;4.32;;;1.70;;
59788;SDS011;47353;51.614;5.530;2023-04-24T13:16:42;5.60;;;1.42;;
59788;SDS011;47353;51.614;5.530;2023-04-24T13:19:08;3.70;;;1.30;;
59788;SDS011;47353;51.614;5.530;2023-04-24T13:21:33;5.68;;;1.30;;
59788;SDS011;47353;51.614;5.530;2023-04-24T13:23:59;3.80;;;1.35;;
59788;SDS011;47353;51.614;5.530;2023-04-24T13:26:24;3.40;;;1.50;;
59788;SDS011;47353;51.614;5.530;2023-04-24T13:28:50;5.28;;;1.60;;
59788;SDS011;47353;51.614;5.530;2023-04-24T13:31:15;2.35;;;1.13;;
59788;SDS011;47353;51.614;5.530;2023-04-24T13:33:41;4.82;;;1.48;;
59788;SDS011;47353;51.614;5.530;2023-04-24T13:36:07;3.50;;;1.30;;
59788;SDS011;47353;51.614;5.530;2023-04-24T13:38:33;2.88;;;1.33;;
59788;SDS011;47353;51.614;5.530;2023-04-24T13:40:59;3.38;;;1.50;;
59788;SDS011;47353;51.614;5.530;2023-04-24T13:43:25;3.13;;;1.23;;
59788;SDS011;47353;51.614;5.530;2023-04-24T13:45:50;3.88;;;1.42;;
59788;SDS011;47353;51.614;5.530;2023-04-24T13:48:16;2.72;;;1.30;;
59788;SDS011;47353;51.614;5.530;2023-04-24T13:50:42;8.90;;;1.58;;
59788;SDS011;47353;51.614;5.530;2023-04-24T13:53:08;5.15;;;1.30;;
59788;SDS011;47353;51.614;5.530;2023-04-24T13:55:33;2.78;;;1.30;;
59788;SDS011;47353;51.614;5.530;2023-04-24T13:57:59;3.33;;;1.50;;
59788;SDS011;47353;51.614;5.530;2023-04-24T14:00:24;3.67;;;1.40;;
59788;SDS011;47353;51.614;5.530;2023-04-24T14:02:50;5.15;;;1.73;;
59788;SDS011;47353;51.614;5.530;2023-04-24T14:05:15;3.70;;;1.20;;
59788;SDS011;47353;51.614;5.530;2023-04-24T14:07:41;4.00;;;1.25;;
59788;SDS011;47353;51.614;5.530;2023-04-24T14:10:06;4.70;;;1.10;;
59788;SDS011;47353;51.614;5.530;2023-04-24T14:12:32;5.07;;;1.13;;
59788;SDS011;47353;51.614;5.530;2023-04-24T14:14:58;3.42;;;1.08;;
59788;SDS011;47353;51.614;5.530;2023-04-24T14:17:23;2.67;;;1.40;;
59788;SDS011;47353;51.614;5.530;2023-04-24T14:19:49;4.63;;;1.30;;
59788;SDS011;47353;51.614;5.530;2023-04-24T14:22:16;4.57;;;1.40;;
59788;SDS011;47353;51.614;5.530;2023-04-24T14:24:42;4.85;;;1.58;;
59788;SDS011;47353;51.614;5.530;2023-04-24T14:27:07;4.00;;;1.80;;
59788;SDS011;47353;51.614;5.530;2023-04-24T14:29:33;5.15;;;1.80;;
59788;SDS011;47353;51.614;5.530;2023-04-24T14:31:58;7.35;;;1.92;;
59788;SDS011;47353;51.614;5.530;2023-04-24T14:34:23;5.55;;;1.85;;
59788;SDS011;47353;51.614;5.530;2023-04-24T14:36:49;4.93;;;2.00;;
59788;SDS011;47353;51.614;5.530;2023-04-24T14:39:14;6.03;;;2.17;;
59788;SDS011;47353;51.614;5.530;2023-04-24T14:41:40;5.45;;;1.83;;
59788;SDS011;47353;51.614;5.530;2023-04-24T14:44:05;4.57;;;1.60;;
59788;SDS011;47353;51.614;5.530;2023-04-24T14:46:31;4.85;;;2.00;;
59788;SDS011;47353;51.614;5.530;2023-04-24T14:48:56;5.63;;;1.85;;